createdAt,value
2023-03-16T00:06:53.523Z,2.76
2023-03-16T00:10:57.275Z,2.98
2023-03-16T00:15:01.688Z,2.93
2023-03-16T00:19:08.441Z,2.92
2023-03-16T00:23:15.000Z,2.85
2023-03-16T00:27:23.286Z,2.72
2023-03-16T00:31:28.566Z,2.31
2023-03-16T00:35:35.214Z,2.26
2023-03-16T00:39:41.154Z,2.42
2023-03-16T00:43:52.661Z,2.61
2023-03-16T00:47:58.178Z,2.84
2023-03-16T00:52:08.187Z,2.60
2023-03-16T00:56:14.334Z,2.70
2023-03-16T01:00:23.691Z,2.76
2023-03-16T01:04:34.230Z,2.74
2023-03-16T01:08:52.224Z,2.73
2023-03-16T01:17:22.498Z,2.48
2023-03-16T01:21:27.187Z,2.30
2023-03-16T01:25:33.184Z,2.41
2023-03-16T01:29:39.704Z,2.46
2023-03-16T01:33:45.304Z,2.45
2023-03-16T01:38:04.759Z,2.44
2023-03-16T01:42:13.208Z,2.44
2023-03-16T01:46:31.600Z,2.50
2023-03-16T01:50:42.948Z,2.37
2023-03-16T01:59:25.476Z,2.34
2023-03-16T02:08:21.276Z,2.32
2023-03-16T02:12:34.547Z,1.97
2023-03-16T02:16:44.414Z,2.09
2023-03-16T02:21:36.264Z,2.06
2023-03-16T02:26:11.178Z,2.09
2023-03-16T02:30:24.305Z,2.04
2023-03-16T02:34:42.498Z,2.09
2023-03-16T02:38:49.073Z,2.13
2023-03-16T02:43:25.948Z,2.19
2023-03-16T02:47:54.665Z,2.23
2023-03-16T02:52:01.200Z,2.35
2023-03-16T02:56:11.317Z,2.82
2023-03-16T03:00:19.502Z,2.96
2023-03-16T03:04:40.675Z,3.10
2023-03-16T03:08:44.904Z,3.57
2023-03-16T03:12:50.400Z,3.83
2023-03-16T03:16:54.503Z,3.25
2023-03-16T03:20:57.010Z,3.11
2023-03-16T03:25:00.195Z,2.84
2023-03-16T03:29:04.666Z,2.96
2023-03-16T03:33:19.060Z,3.00
2023-03-16T03:37:28.432Z,3.07
2023-03-16T03:41:35.958Z,3.14
2023-03-16T03:45:43.099Z,3.25
2023-03-16T03:49:48.192Z,3.21
2023-03-16T03:53:57.401Z,3.15
2023-03-16T03:58:19.353Z,2.88
2023-03-16T04:02:26.978Z,2.71
2023-03-16T04:06:35.870Z,2.64
2023-03-16T04:10:48.398Z,2.55
2023-03-16T04:14:55.583Z,2.49
2023-03-16T04:19:09.783Z,2.44
2023-03-16T04:23:15.295Z,2.46
2023-03-16T04:27:27.642Z,2.40
2023-03-16T04:31:34.883Z,2.51
2023-03-16T04:35:42.335Z,2.44
2023-03-16T04:39:47.864Z,2.39
2023-03-16T04:43:54.230Z,2.50
2023-03-16T04:47:59.929Z,2.60
2023-03-16T04:52:06.851Z,2.47
2023-03-16T04:56:20.715Z,2.29
2023-03-16T05:00:33.858Z,2.07
2023-03-16T05:04:46.901Z,2.18
2023-03-16T05:08:54.317Z,2.05
2023-03-16T05:12:58.982Z,2.24
2023-03-16T05:17:06.936Z,2.21
2023-03-16T05:21:13.504Z,2.16
2023-03-16T05:25:38.371Z,2.46
2023-03-16T05:29:48.219Z,2.63
2023-03-16T05:33:54.040Z,2.79
2023-03-16T05:38:00.761Z,2.91
2023-03-16T05:42:07.255Z,2.99
2023-03-16T05:46:31.034Z,3.00
2023-03-16T05:50:40.244Z,3.06
2023-03-16T05:54:46.715Z,3.25
2023-03-16T05:58:55.383Z,3.61
2023-03-16T06:03:03.489Z,3.84
2023-03-16T06:07:13.412Z,3.99
2023-03-16T06:11:20.817Z,4.19
2023-03-16T06:15:48.017Z,4.38
2023-03-16T06:19:51.035Z,4.43
2023-03-16T06:23:54.616Z,4.49
2023-03-16T06:27:57.130Z,4.60
2023-03-16T06:32:00.255Z,4.72
2023-03-16T06:36:03.368Z,4.87
2023-03-16T06:40:10.721Z,5.14
2023-03-16T06:44:13.015Z,5.31
2023-03-16T06:48:25.694Z,5.42
2023-03-16T06:52:28.249Z,5.76
2023-03-16T06:56:31.907Z,6.09
2023-03-16T07:00:34.322Z,6.27
2023-03-16T07:04:36.649Z,6.29
2023-03-16T07:08:39.386Z,6.45
2023-03-16T07:12:42.513Z,6.73
2023-03-16T07:16:45.398Z,6.86
2023-03-16T07:20:49.534Z,6.88
2023-03-16T07:24:57.400Z,7.14
2023-03-16T07:29:02.186Z,7.33
2023-03-16T07:33:05.568Z,7.51
2023-03-16T07:37:09.213Z,7.66
2023-03-16T07:41:15.542Z,7.79
2023-03-16T07:45:18.236Z,7.94
2023-03-16T07:49:21.857Z,8.00
2023-03-16T07:53:24.702Z,8.17
2023-03-16T07:57:39.990Z,8.25
2023-03-16T08:01:42.185Z,8.42
2023-03-16T08:05:44.884Z,8.45
2023-03-16T08:09:51.762Z,8.59
2023-03-16T08:13:59.494Z,8.68
2023-03-16T08:18:15.225Z,8.85
2023-03-16T08:22:19.432Z,8.90
2023-03-16T08:26:26.693Z,9.03
2023-03-16T08:30:36.924Z,9.11
2023-03-16T08:35:07.767Z,9.28
2023-03-16T08:39:19.605Z,9.32
2023-03-16T08:43:30.739Z,9.37
2023-03-16T08:47:37.189Z,9.49
2023-03-16T08:51:44.923Z,9.63
2023-03-16T08:55:52.656Z,9.75
2023-03-16T08:59:57.877Z,9.79
2023-03-16T09:04:03.974Z,9.87
2023-03-16T09:08:12.340Z,9.99
2023-03-16T09:12:17.073Z,10.02
2023-03-16T09:16:21.152Z,10.13
2023-03-16T09:20:26.828Z,10.29
2023-03-16T09:24:32.862Z,10.30
2023-03-16T09:28:39.079Z,10.37
2023-03-16T09:32:41.596Z,10.48
2023-03-16T09:36:47.743Z,10.54
2023-03-16T09:41:00.359Z,10.56
2023-03-16T09:45:24.365Z,10.71
2023-03-16T09:49:40.410Z,10.69
2023-03-16T09:53:48.506Z,10.64
2023-03-16T09:57:56.732Z,10.84
2023-03-16T10:02:15.839Z,10.99
2023-03-16T10:06:22.939Z,11.11
2023-03-16T10:10:48.345Z,11.32
2023-03-16T10:15:04.933Z,11.26
2023-03-16T10:19:20.040Z,11.25
2023-03-16T10:23:25.468Z,11.29
2023-03-16T10:27:39.748Z,11.32
2023-03-16T10:31:44.320Z,11.32
2023-03-16T10:35:48.626Z,11.36
2023-03-16T10:39:51.683Z,11.53
2023-03-16T10:43:58.924Z,11.63
2023-03-16T10:48:15.323Z,11.64
2023-03-16T10:52:20.917Z,11.76
2023-03-16T10:56:25.457Z,11.60
2023-03-16T11:00:29.965Z,11.58
2023-03-16T11:04:33.387Z,11.83
2023-03-16T11:08:39.022Z,11.95
2023-03-16T11:12:41.613Z,11.91
2023-03-16T11:16:52.428Z,12.04
2023-03-16T11:20:55.724Z,12.21
2023-03-16T11:25:20.938Z,12.25
2023-03-16T11:29:34.760Z,12.18
2023-03-16T11:33:38.109Z,11.95
2023-03-16T11:37:47.114Z,11.92
2023-03-16T11:42:21.553Z,11.84
2023-03-16T11:46:28.917Z,12.08
2023-03-16T11:51:01.596Z,12.31
2023-03-16T11:55:22.395Z,12.37
2023-03-16T12:00:00.573Z,12.34
2023-03-16T12:04:24.913Z,12.48
2023-03-16T12:08:54.138Z,12.52
2023-03-16T12:13:15.856Z,12.57
2023-03-16T12:17:27.452Z,12.41
2023-03-16T12:21:39.001Z,12.52
2023-03-16T12:25:46.318Z,12.70
2023-03-16T12:30:20.660Z,12.57
2023-03-16T12:34:41.272Z,12.62
2023-03-16T12:39:13.773Z,12.64
2023-03-16T12:43:24.987Z,12.69
2023-03-16T12:47:43.460Z,12.52
2023-03-16T12:51:48.323Z,12.73
2023-03-16T12:55:50.696Z,12.72
2023-03-16T12:59:59.012Z,12.84
2023-03-16T13:04:14.825Z,12.96
2023-03-16T13:08:20.874Z,12.92
2023-03-16T13:12:28.298Z,12.60
2023-03-16T13:16:33.995Z,12.90
2023-03-16T13:20:52.871Z,12.94
2023-03-16T13:25:01.000Z,13.08
2023-03-16T13:29:19.759Z,13.02
2023-03-16T13:33:28.010Z,12.84
2023-03-16T13:37:55.666Z,12.86
2023-03-16T13:42:17.476Z,12.82
2023-03-16T13:46:27.287Z,12.88
2023-03-16T13:50:34.952Z,13.13
2023-03-16T13:54:37.503Z,13.05
2023-03-16T13:58:42.784Z,13.06
2023-03-16T14:02:47.464Z,13.20
2023-03-16T14:06:55.417Z,13.11
2023-03-16T14:11:01.109Z,13.10
2023-03-16T14:15:05.612Z,13.11
2023-03-16T14:19:44.536Z,13.13
2023-03-16T14:23:51.227Z,13.31
2023-03-16T14:28:07.657Z,13.22
2023-03-16T14:32:29.528Z,13.13
2023-03-16T14:36:38.341Z,13.24
2023-03-16T14:40:40.578Z,13.06
2023-03-16T14:44:42.768Z,13.14
2023-03-16T14:48:45.798Z,13.10
2023-03-16T14:52:48.603Z,13.05
2023-03-16T14:57:02.994Z,13.16
2023-03-16T15:01:06.472Z,13.24
2023-03-16T15:05:10.910Z,13.15
2023-03-16T15:09:33.305Z,12.96
2023-03-16T15:13:41.385Z,13.04
2023-03-16T15:17:46.715Z,12.85
2023-03-16T15:21:48.856Z,12.86
2023-03-16T15:25:53.903Z,12.92
2023-03-16T15:29:56.776Z,12.90
2023-03-16T15:33:59.229Z,12.82
2023-03-16T15:38:04.894Z,12.66
2023-03-16T15:42:18.350Z,12.67
2023-03-16T15:46:21.314Z,12.62
2023-03-16T15:50:25.395Z,12.60
2023-03-16T15:54:32.014Z,12.60
2023-03-16T15:58:36.366Z,12.56
2023-03-16T16:02:39.645Z,12.57
2023-03-16T16:06:42.177Z,12.57
2023-03-16T16:10:45.716Z,12.56
2023-03-16T16:14:48.414Z,12.81
2023-03-16T16:18:51.002Z,13.17
2023-03-16T16:22:55.100Z,13.47
2023-03-16T16:26:57.738Z,13.46
2023-03-16T16:31:01.703Z,13.64
2023-03-16T16:35:13.357Z,13.41
2023-03-16T16:39:15.712Z,13.48
2023-03-16T16:43:41.274Z,13.19
2023-03-16T16:47:43.494Z,12.98
2023-03-16T16:51:46.621Z,12.82
2023-03-16T16:55:48.774Z,12.53
2023-03-16T16:59:51.069Z,11.96
2023-03-16T17:03:53.664Z,11.39
2023-03-16T17:07:55.801Z,11.06
2023-03-16T17:12:01.457Z,10.60
2023-03-16T17:16:04.270Z,10.22
2023-03-16T17:20:20.175Z,9.94
2023-03-16T17:24:22.907Z,9.67
2023-03-16T17:28:27.526Z,9.46
2023-03-16T17:32:32.315Z,9.24
2023-03-16T17:36:37.570Z,9.02
2023-03-16T17:40:40.345Z,8.94
2023-03-16T17:44:46.051Z,8.83
2023-03-16T17:48:50.986Z,8.66
2023-03-16T17:52:55.814Z,8.61
2023-03-16T17:57:04.702Z,8.47
2023-03-16T18:01:07.033Z,8.34
2023-03-16T18:05:18.291Z,8.26
2023-03-16T18:09:21.211Z,8.16
2023-03-16T18:13:30.418Z,8.03
2023-03-16T18:18:07.700Z,7.92
2023-03-16T18:22:20.535Z,7.80
2023-03-16T18:26:25.062Z,7.73
2023-03-16T18:30:47.321Z,7.67
2023-03-16T18:34:52.846Z,7.60
2023-03-16T18:38:56.148Z,7.52
2023-03-16T18:42:58.797Z,7.46
2023-03-16T18:47:03.186Z,7.49
2023-03-16T18:51:05.572Z,7.44
2023-03-16T18:55:20.435Z,7.38
2023-03-16T18:59:22.733Z,7.37
2023-03-16T19:03:35.511Z,7.29
2023-03-16T19:07:43.776Z,7.23
2023-03-16T19:11:47.138Z,7.12
2023-03-16T19:15:51.287Z,7.06
2023-03-16T19:19:53.594Z,6.85
2023-03-16T19:23:59.033Z,6.81
2023-03-16T19:28:02.188Z,6.76
2023-03-16T19:32:05.021Z,6.66
2023-03-16T19:36:19.178Z,6.63
2023-03-16T19:40:24.074Z,6.53
2023-03-16T19:44:28.449Z,6.44
2023-03-16T19:48:34.442Z,6.56
2023-03-16T19:52:36.552Z,6.43
2023-03-16T19:56:38.853Z,6.40
2023-03-16T20:00:42.110Z,6.35
2023-03-16T20:04:44.860Z,6.39
2023-03-16T20:08:48.342Z,6.44
2023-03-16T20:12:55.674Z,6.42
2023-03-16T20:16:58.508Z,6.39
2023-03-16T20:21:01.383Z,6.34
2023-03-16T20:25:05.971Z,6.31
2023-03-16T20:29:24.083Z,6.45
2023-03-16T20:33:28.888Z,6.38
2023-03-16T20:37:31.441Z,6.33
2023-03-16T20:41:34.165Z,6.32
2023-03-16T20:45:36.768Z,6.29
2023-03-16T20:49:39.177Z,6.23
2023-03-16T20:53:43.900Z,6.24
2023-03-16T20:57:47.569Z,6.18
2023-03-16T21:01:52.464Z,6.18
2023-03-16T21:05:59.321Z,6.03
2023-03-16T21:10:02.675Z,6.05
2023-03-16T21:14:11.922Z,5.93
2023-03-16T21:18:18.844Z,5.78
2023-03-16T21:22:25.262Z,5.67
2023-03-16T21:26:29.783Z,5.68
2023-03-16T21:30:35.488Z,5.67
2023-03-16T21:34:37.571Z,5.62
2023-03-16T21:38:39.746Z,5.51
2023-03-16T21:42:42.228Z,5.50
2023-03-16T21:46:47.392Z,5.54
2023-03-16T21:50:51.384Z,5.56
2023-03-16T21:54:55.066Z,5.60
2023-03-16T21:58:57.384Z,5.61
2023-03-16T22:03:01.064Z,5.56
2023-03-16T22:07:03.825Z,5.57
2023-03-16T22:11:15.750Z,5.48
2023-03-16T22:15:18.582Z,5.45
2023-03-16T22:19:21.158Z,5.41
2023-03-16T22:23:34.988Z,5.34
2023-03-16T22:27:37.534Z,5.19
2023-03-16T22:31:39.989Z,4.77
2023-03-16T22:35:42.875Z,4.62
2023-03-16T22:39:45.520Z,4.49
2023-03-16T22:43:49.359Z,4.45
2023-03-16T22:47:52.559Z,4.39
2023-03-16T22:51:57.540Z,4.43
2023-03-16T22:56:00.249Z,3.91
2023-03-16T23:00:07.103Z,3.67
2023-03-16T23:04:24.923Z,3.36
2023-03-16T23:08:28.022Z,3.34
2023-03-16T23:12:30.236Z,3.28
2023-03-16T23:16:37.258Z,3.39
2023-03-16T23:20:39.456Z,3.31
2023-03-16T23:24:42.537Z,3.22
2023-03-16T23:28:46.399Z,3.27
2023-03-16T23:32:48.938Z,3.25
2023-03-16T23:36:51.858Z,3.17
2023-03-16T23:40:54.098Z,2.57
2023-03-16T23:44:56.475Z,2.63
2023-03-16T23:49:01.902Z,2.82
2023-03-16T23:53:04.281Z,2.63
2023-03-16T23:57:06.755Z,2.60
